sensor_id;sensor_type;location;lat;lon;timestamp;P1;durP1;ratioP1;P2;durP2;ratioP2
9948;SDS011;5013;51.840;8.276;2022-10-16T00:00:37;3.90;;;3.53;;
9948;SDS011;5013;51.840;8.276;2022-10-16T00:03:04;3.90;;;3.60;;
9948;SDS011;5013;51.840;8.276;2022-10-16T00:05:30;5.17;;;3.60;;
9948;SDS011;5013;51.840;8.276;2022-10-16T00:07:56;5.33;;;3.93;;
9948;SDS011;5013;51.840;8.276;2022-10-16T00:10:22;4.17;;;3.80;;
9948;SDS011;5013;51.840;8.276;2022-10-16T00:12:48;5.97;;;3.73;;
9948;SDS011;5013;51.840;8.276;2022-10-16T00:15:14;4.57;;;4.27;;
9948;SDS011;5013;51.840;8.276;2022-10-16T00:17:40;5.57;;;4.20;;
9948;SDS011;5013;51.840;8.276;2022-10-16T00:20:05;6.13;;;3.93;;
9948;SDS011;5013;51.840;8.276;2022-10-16T00:22:32;4.50;;;4.20;;
9948;SDS011;5013;51.840;8.276;2022-10-16T00:24:57;4.50;;;3.60;;
9948;SDS011;5013;51.840;8.276;2022-10-16T00:27:23;6.73;;;4.40;;
9948;SDS011;5013;51.840;8.276;2022-10-16T00:29:49;4.70;;;4.30;;
9948;SDS011;5013;51.840;8.276;2022-10-16T00:32:16;4.40;;;4.03;;
9948;SDS011;5013;51.840;8.276;2022-10-16T00:34:43;4.20;;;3.90;;
9948;SDS011;5013;51.840;8.276;2022-10-16T00:37:08;4.73;;;4.27;;
9948;SDS011;5013;51.840;8.276;2022-10-16T00:39:34;3.53;;;3.33;;
9948;SDS011;5013;51.840;8.276;2022-10-16T00:42:00;6.50;;;4.80;;
9948;SDS011;5013;51.840;8.276;2022-10-16T00:47:27;4.60;;;4.20;;
9948;SDS011;5013;51.840;8.276;2022-10-16T00:49:58;4.50;;;4.17;;
9948;SDS011;5013;51.840;8.276;2022-10-16T00:52:44;4.87;;;4.63;;
9948;SDS011;5013;51.840;8.276;2022-10-16T00:55:13;4.60;;;4.30;;
9948;SDS011;5013;51.840;8.276;2022-10-16T00:57:39;5.30;;;4.03;;
9948;SDS011;5013;51.840;8.276;2022-10-16T01:00:07;8.00;;;4.70;;
9948;SDS011;5013;51.840;8.276;2022-10-16T01:02:34;5.50;;;4.90;;
9948;SDS011;5013;51.840;8.276;2022-10-16T01:05:00;4.90;;;4.50;;
9948;SDS011;5013;51.840;8.276;2022-10-16T01:12:50;4.97;;;4.57;;
9948;SDS011;5013;51.840;8.276;2022-10-16T01:18:30;5.57;;;4.67;;
9948;SDS011;5013;51.840;8.276;2022-10-16T01:21:03;5.10;;;4.60;;
9948;SDS011;5013;51.840;8.276;2022-10-16T01:29:09;4.70;;;4.40;;
9948;SDS011;5013;51.840;8.276;2022-10-16T01:31:43;9.80;;;5.27;;
9948;SDS011;5013;51.840;8.276;2022-10-16T01:34:14;7.20;;;5.57;;
9948;SDS011;5013;51.840;8.276;2022-10-16T01:36:49;5.17;;;4.67;;
9948;SDS011;5013;51.840;8.276;2022-10-16T01:39:20;4.63;;;4.37;;
9948;SDS011;5013;51.840;8.276;2022-10-16T01:41:56;6.73;;;4.70;;
9948;SDS011;5013;51.840;8.276;2022-10-16T01:44:28;5.70;;;4.77;;
9948;SDS011;5013;51.840;8.276;2022-10-16T01:46:56;5.30;;;4.73;;
9948;SDS011;5013;51.840;8.276;2022-10-16T01:49:23;7.83;;;5.37;;
9948;SDS011;5013;51.840;8.276;2022-10-16T01:51:54;6.57;;;4.90;;
9948;SDS011;5013;51.840;8.276;2022-10-16T01:54:23;4.97;;;4.67;;
9948;SDS011;5013;51.840;8.276;2022-10-16T01:56:52;5.13;;;4.63;;
9948;SDS011;5013;51.840;8.276;2022-10-16T01:59:20;4.93;;;4.43;;
9948;SDS011;5013;51.840;8.276;2022-10-16T02:01:49;5.67;;;4.87;;
9948;SDS011;5013;51.840;8.276;2022-10-16T02:04:33;4.77;;;4.27;;
9948;SDS011;5013;51.840;8.276;2022-10-16T02:07:02;5.03;;;4.63;;
9948;SDS011;5013;51.840;8.276;2022-10-16T02:09:29;4.87;;;4.30;;
9948;SDS011;5013;51.840;8.276;2022-10-16T02:11:58;5.13;;;4.73;;
9948;SDS011;5013;51.840;8.276;2022-10-16T02:14:28;5.53;;;4.70;;
9948;SDS011;5013;51.840;8.276;2022-10-16T02:16:54;5.03;;;4.63;;
9948;SDS011;5013;51.840;8.276;2022-10-16T02:19:20;4.83;;;4.30;;
9948;SDS011;5013;51.840;8.276;2022-10-16T02:21:51;5.10;;;4.70;;
9948;SDS011;5013;51.840;8.276;2022-10-16T02:24:34;8.40;;;5.20;;
9948;SDS011;5013;51.840;8.276;2022-10-16T02:27:20;5.97;;;4.83;;
9948;SDS011;5013;51.840;8.276;2022-10-16T02:29:55;7.73;;;5.57;;
9948;SDS011;5013;51.840;8.276;2022-10-16T02:32:33;5.70;;;4.37;;
9948;SDS011;5013;51.840;8.276;2022-10-16T02:35:01;5.20;;;4.30;;
9948;SDS011;5013;51.840;8.276;2022-10-16T02:37:28;5.30;;;4.83;;
9948;SDS011;5013;51.840;8.276;2022-10-16T02:39:55;5.80;;;5.30;;
9948;SDS011;5013;51.840;8.276;2022-10-16T02:42:27;4.70;;;4.40;;
9948;SDS011;5013;51.840;8.276;2022-10-16T02:45:03;5.63;;;5.03;;
9948;SDS011;5013;51.840;8.276;2022-10-16T02:47:29;5.23;;;4.83;;
9948;SDS011;5013;51.840;8.276;2022-10-16T02:49:55;4.87;;;4.57;;
9948;SDS011;5013;51.840;8.276;2022-10-16T02:52:21;5.17;;;4.77;;
9948;SDS011;5013;51.840;8.276;2022-10-16T02:54:46;4.33;;;4.00;;
9948;SDS011;5013;51.840;8.276;2022-10-16T02:57:12;5.20;;;4.63;;
9948;SDS011;5013;51.840;8.276;2022-10-16T02:59:37;6.93;;;4.53;;
9948;SDS011;5013;51.840;8.276;2022-10-16T03:02:03;7.00;;;4.90;;
9948;SDS011;5013;51.840;8.276;2022-10-16T03:04:29;8.17;;;4.33;;
9948;SDS011;5013;51.840;8.276;2022-10-16T03:06:54;6.13;;;4.40;;
9948;SDS011;5013;51.840;8.276;2022-10-16T03:09:20;4.50;;;4.10;;
9948;SDS011;5013;51.840;8.276;2022-10-16T03:11:46;5.13;;;3.40;;
9948;SDS011;5013;51.840;8.276;2022-10-16T03:17:34;3.70;;;3.40;;
9948;SDS011;5013;51.840;8.276;2022-10-16T03:19:59;3.53;;;3.33;;
9948;SDS011;5013;51.840;8.276;2022-10-16T03:22:25;3.57;;;3.27;;
9948;SDS011;5013;51.840;8.276;2022-10-16T03:24:50;5.10;;;3.93;;
9948;SDS011;5013;51.840;8.276;2022-10-16T03:27:16;6.43;;;3.40;;
9948;SDS011;5013;51.840;8.276;2022-10-16T03:29:42;3.63;;;2.83;;
9948;SDS011;5013;51.840;8.276;2022-10-16T03:32:07;2.97;;;2.80;;
9948;SDS011;5013;51.840;8.276;2022-10-16T03:34:33;3.47;;;2.93;;
9948;SDS011;5013;51.840;8.276;2022-10-16T03:36:58;3.40;;;3.20;;
9948;SDS011;5013;51.840;8.276;2022-10-16T03:39:24;3.13;;;3.00;;
9948;SDS011;5013;51.840;8.276;2022-10-16T03:41:50;2.97;;;2.87;;
9948;SDS011;5013;51.840;8.276;2022-10-16T03:44:15;3.63;;;3.33;;
9948;SDS011;5013;51.840;8.276;2022-10-16T03:46:41;3.57;;;2.87;;
9948;SDS011;5013;51.840;8.276;2022-10-16T03:49:07;3.10;;;2.90;;
9948;SDS011;5013;51.840;8.276;2022-10-16T03:51:32;4.93;;;2.83;;
9948;SDS011;5013;51.840;8.276;2022-10-16T03:53:58;3.83;;;3.10;;
9948;SDS011;5013;51.840;8.276;2022-10-16T03:56:23;2.60;;;2.40;;
9948;SDS011;5013;51.840;8.276;2022-10-16T03:58:49;3.70;;;3.00;;
9948;SDS011;5013;51.840;8.276;2022-10-16T04:01:15;2.40;;;2.20;;
9948;SDS011;5013;51.840;8.276;2022-10-16T04:03:40;3.27;;;2.47;;
9948;SDS011;5013;51.840;8.276;2022-10-16T04:06:06;2.63;;;2.50;;
9948;SDS011;5013;51.840;8.276;2022-10-16T04:08:32;2.60;;;2.10;;
9948;SDS011;5013;51.840;8.276;2022-10-16T04:11:00;2.80;;;2.53;;
9948;SDS011;5013;51.840;8.276;2022-10-16T04:13:26;2.17;;;2.07;;
9948;SDS011;5013;51.840;8.276;2022-10-16T04:15:51;1.90;;;1.80;;
9948;SDS011;5013;51.840;8.276;2022-10-16T04:18:17;2.73;;;2.20;;
9948;SDS011;5013;51.840;8.276;2022-10-16T04:20:42;3.57;;;2.40;;
9948;SDS011;5013;51.840;8.276;2022-10-16T04:23:08;3.23;;;2.20;;
9948;SDS011;5013;51.840;8.276;2022-10-16T04:25:34;2.30;;;2.20;;
9948;SDS011;5013;51.840;8.276;2022-10-16T04:27:59;2.60;;;2.40;;
9948;SDS011;5013;51.840;8.276;2022-10-16T04:30:25;3.73;;;3.10;;
9948;SDS011;5013;51.840;8.276;2022-10-16T04:32:51;4.07;;;2.53;;
9948;SDS011;5013;51.840;8.276;2022-10-16T04:35:17;2.87;;;2.10;;
9948;SDS011;5013;51.840;8.276;2022-10-16T04:37:44;2.40;;;2.20;;
9948;SDS011;5013;51.840;8.276;2022-10-16T04:40:10;2.17;;;2.00;;
9948;SDS011;5013;51.840;8.276;2022-10-16T04:42:36;2.10;;;2.00;;
9948;SDS011;5013;51.840;8.276;2022-10-16T04:45:02;2.13;;;1.93;;
9948;SDS011;5013;51.840;8.276;2022-10-16T04:47:29;2.30;;;2.20;;
9948;SDS011;5013;51.840;8.276;2022-10-16T04:49:54;2.20;;;1.90;;
9948;SDS011;5013;51.840;8.276;2022-10-16T04:52:20;2.03;;;2.00;;
9948;SDS011;5013;51.840;8.276;2022-10-16T04:54:46;3.67;;;2.30;;
9948;SDS011;5013;51.840;8.276;2022-10-16T04:57:12;3.83;;;2.30;;
9948;SDS011;5013;51.840;8.276;2022-10-16T04:59:38;1.73;;;1.73;;
9948;SDS011;5013;51.840;8.276;2022-10-16T05:02:03;2.00;;;1.90;;
9948;SDS011;5013;51.840;8.276;2022-10-16T05:04:29;2.10;;;2.10;;
9948;SDS011;5013;51.840;8.276;2022-10-16T05:06:55;2.00;;;1.83;;
9948;SDS011;5013;51.840;8.276;2022-10-16T05:09:20;3.03;;;2.20;;
9948;SDS011;5013;51.840;8.276;2022-10-16T05:11:46;2.00;;;1.90;;
9948;SDS011;5013;51.840;8.276;2022-10-16T05:14:12;3.73;;;2.00;;
9948;SDS011;5013;51.840;8.276;2022-10-16T05:16:37;1.83;;;1.83;;
9948;SDS011;5013;51.840;8.276;2022-10-16T05:19:03;3.90;;;2.70;;
9948;SDS011;5013;51.840;8.276;2022-10-16T05:24:51;2.50;;;2.10;;
9948;SDS011;5013;51.840;8.276;2022-10-16T05:27:16;2.20;;;2.00;;
9948;SDS011;5013;51.840;8.276;2022-10-16T05:29:46;2.00;;;2.00;;
9948;SDS011;5013;51.840;8.276;2022-10-16T05:32:16;2.77;;;2.10;;
9948;SDS011;5013;51.840;8.276;2022-10-16T05:34:43;1.90;;;1.80;;
9948;SDS011;5013;51.840;8.276;2022-10-16T05:37:09;1.90;;;1.80;;
9948;SDS011;5013;51.840;8.276;2022-10-16T05:39:36;2.07;;;1.97;;
9948;SDS011;5013;51.840;8.276;2022-10-16T05:42:02;9.10;;;2.30;;
9948;SDS011;5013;51.840;8.276;2022-10-16T05:44:29;2.27;;;2.17;;
9948;SDS011;5013;51.840;8.276;2022-10-16T05:46:54;2.70;;;2.47;;
9948;SDS011;5013;51.840;8.276;2022-10-16T05:52:42;2.03;;;2.00;;
9948;SDS011;5013;51.840;8.276;2022-10-16T05:55:07;2.30;;;2.20;;
9948;SDS011;5013;51.840;8.276;2022-10-16T05:57:33;2.03;;;1.90;;
9948;SDS011;5013;51.840;8.276;2022-10-16T05:59:59;5.80;;;2.13;;
9948;SDS011;5013;51.840;8.276;2022-10-16T06:02:24;2.00;;;2.00;;
9948;SDS011;5013;51.840;8.276;2022-10-16T06:04:53;2.30;;;2.07;;
9948;SDS011;5013;51.840;8.276;2022-10-16T06:07:19;2.20;;;2.10;;
9948;SDS011;5013;51.840;8.276;2022-10-16T06:09:47;1.97;;;1.93;;
9948;SDS011;5013;51.840;8.276;2022-10-16T06:12:14;1.90;;;1.80;;
9948;SDS011;5013;51.840;8.276;2022-10-16T06:14:40;2.00;;;1.90;;
9948;SDS011;5013;51.840;8.276;2022-10-16T06:20:28;2.90;;;1.67;;
9948;SDS011;5013;51.840;8.276;2022-10-16T06:26:19;2.03;;;1.73;;
9948;SDS011;5013;51.840;8.276;2022-10-16T06:28:46;2.10;;;1.90;;
9948;SDS011;5013;51.840;8.276;2022-10-16T06:31:12;2.37;;;2.20;;
9948;SDS011;5013;51.840;8.276;2022-10-16T06:37:02;2.90;;;2.40;;
9948;SDS011;5013;51.840;8.276;2022-10-16T06:39:28;2.33;;;1.90;;
9948;SDS011;5013;51.840;8.276;2022-10-16T06:41:53;2.00;;;1.90;;
9948;SDS011;5013;51.840;8.276;2022-10-16T06:47:41;2.23;;;1.80;;
9948;SDS011;5013;51.840;8.276;2022-10-16T06:50:06;1.93;;;1.77;;
9948;SDS011;5013;51.840;8.276;2022-10-16T06:52:33;1.90;;;1.80;;
9948;SDS011;5013;51.840;8.276;2022-10-16T06:54:59;2.50;;;1.63;;
9948;SDS011;5013;51.840;8.276;2022-10-16T06:57:24;2.10;;;1.70;;
9948;SDS011;5013;51.840;8.276;2022-10-16T06:59:50;4.33;;;1.70;;
9948;SDS011;5013;51.840;8.276;2022-10-16T07:02:16;4.63;;;1.60;;
9948;SDS011;5013;51.840;8.276;2022-10-16T07:04:41;3.03;;;1.83;;
9948;SDS011;5013;51.840;8.276;2022-10-16T07:07:07;3.40;;;1.60;;
9948;SDS011;5013;51.840;8.276;2022-10-16T07:09:33;1.70;;;1.60;;
9948;SDS011;5013;51.840;8.276;2022-10-16T07:11:58;1.70;;;1.60;;
9948;SDS011;5013;51.840;8.276;2022-10-16T07:14:24;2.73;;;1.73;;
9948;SDS011;5013;51.840;8.276;2022-10-16T07:16:50;2.23;;;1.60;;
9948;SDS011;5013;51.840;8.276;2022-10-16T07:19:15;1.43;;;1.43;;
9948;SDS011;5013;51.840;8.276;2022-10-16T07:21:42;1.33;;;1.33;;
9948;SDS011;5013;51.840;8.276;2022-10-16T07:24:12;1.70;;;1.60;;
9948;SDS011;5013;51.840;8.276;2022-10-16T07:26:40;2.73;;;1.60;;
9948;SDS011;5013;51.840;8.276;2022-10-16T07:32:29;1.50;;;1.40;;
9948;SDS011;5013;51.840;8.276;2022-10-16T07:34:55;3.20;;;1.30;;
9948;SDS011;5013;51.840;8.276;2022-10-16T07:37:21;2.93;;;1.57;;
9948;SDS011;5013;51.840;8.276;2022-10-16T07:39:47;1.63;;;1.53;;
9948;SDS011;5013;51.840;8.276;2022-10-16T07:42:13;1.97;;;1.50;;
9948;SDS011;5013;51.840;8.276;2022-10-16T07:44:38;2.47;;;1.30;;
9948;SDS011;5013;51.840;8.276;2022-10-16T07:47:04;1.13;;;1.10;;
9948;SDS011;5013;51.840;8.276;2022-10-16T07:49:30;2.00;;;1.20;;
9948;SDS011;5013;51.840;8.276;2022-10-16T07:51:56;1.33;;;1.23;;
9948;SDS011;5013;51.840;8.276;2022-10-16T07:57:44;2.13;;;1.10;;
9948;SDS011;5013;51.840;8.276;2022-10-16T08:00:09;1.60;;;1.50;;
9948;SDS011;5013;51.840;8.276;2022-10-16T08:02:42;1.70;;;1.60;;
9948;SDS011;5013;51.840;8.276;2022-10-16T08:05:07;2.33;;;1.40;;
9948;SDS011;5013;51.840;8.276;2022-10-16T08:07:33;1.63;;;1.27;;
9948;SDS011;5013;51.840;8.276;2022-10-16T08:09:59;5.33;;;1.70;;
9948;SDS011;5013;51.840;8.276;2022-10-16T08:12:25;1.33;;;1.30;;
9948;SDS011;5013;51.840;8.276;2022-10-16T08:14:51;3.57;;;1.40;;
9948;SDS011;5013;51.840;8.276;2022-10-16T08:17:16;2.83;;;1.27;;
9948;SDS011;5013;51.840;8.276;2022-10-16T08:19:46;2.57;;;1.23;;
9948;SDS011;5013;51.840;8.276;2022-10-16T08:22:15;1.57;;;1.43;;
9948;SDS011;5013;51.840;8.276;2022-10-16T08:28:03;1.53;;;1.43;;
9948;SDS011;5013;51.840;8.276;2022-10-16T08:30:31;1.70;;;1.53;;
9948;SDS011;5013;51.840;8.276;2022-10-16T08:32:57;2.07;;;1.83;;
9948;SDS011;5013;51.840;8.276;2022-10-16T08:35:23;6.93;;;1.70;;
9948;SDS011;5013;51.840;8.276;2022-10-16T08:37:48;1.53;;;1.30;;
9948;SDS011;5013;51.840;8.276;2022-10-16T08:40:23;4.57;;;1.33;;
9948;SDS011;5013;51.840;8.276;2022-10-16T08:48:33;2.30;;;1.53;;
9948;SDS011;5013;51.840;8.276;2022-10-16T08:51:25;1.50;;;1.40;;
9948;SDS011;5013;51.840;8.276;2022-10-16T08:53:58;1.20;;;1.20;;
9948;SDS011;5013;51.840;8.276;2022-10-16T08:57:07;1.40;;;1.30;;
9948;SDS011;5013;51.840;8.276;2022-10-16T08:59:42;2.57;;;1.30;;
9948;SDS011;5013;51.840;8.276;2022-10-16T09:02:31;1.40;;;1.30;;
9948;SDS011;5013;51.840;8.276;2022-10-16T09:08:09;1.73;;;1.23;;
9948;SDS011;5013;51.840;8.276;2022-10-16T09:10:57;2.60;;;1.37;;
9948;SDS011;5013;51.840;8.276;2022-10-16T09:21:52;5.60;;;1.60;;
9948;SDS011;5013;51.840;8.276;2022-10-16T09:24:23;1.00;;;1.00;;
9948;SDS011;5013;51.840;8.276;2022-10-16T09:26:50;1.30;;;1.20;;
9948;SDS011;5013;51.840;8.276;2022-10-16T09:29:18;1.50;;;1.07;;
9948;SDS011;5013;51.840;8.276;2022-10-16T09:35:13;1.40;;;1.03;;
9948;SDS011;5013;51.840;8.276;2022-10-16T09:37:45;2.27;;;1.20;;
9948;SDS011;5013;51.840;8.276;2022-10-16T09:40:30;2.50;;;1.03;;
9948;SDS011;5013;51.840;8.276;2022-10-16T09:46:25;2.90;;;1.20;;
9948;SDS011;5013;51.840;8.276;2022-10-16T09:52:19;2.80;;;1.07;;
9948;SDS011;5013;51.840;8.276;2022-10-16T09:54:58;4.43;;;1.43;;
9948;SDS011;5013;51.840;8.276;2022-10-16T09:57:26;3.67;;;1.53;;
9948;SDS011;5013;51.840;8.276;2022-10-16T10:03:10;3.73;;;1.30;;
9948;SDS011;5013;51.840;8.276;2022-10-16T10:05:37;2.03;;;0.80;;
9948;SDS011;5013;51.840;8.276;2022-10-16T10:14:36;3.50;;;1.10;;
9948;SDS011;5013;51.840;8.276;2022-10-16T10:26:16;2.67;;;1.30;;
9948;SDS011;5013;51.840;8.276;2022-10-16T10:32:13;2.73;;;1.17;;
9948;SDS011;5013;51.840;8.276;2022-10-16T10:40:45;2.40;;;1.40;;
9948;SDS011;5013;51.840;8.276;2022-10-16T10:46:02;2.07;;;1.13;;
9948;SDS011;5013;51.840;8.276;2022-10-16T11:05:58;1.87;;;1.20;;
9948;SDS011;5013;51.840;8.276;2022-10-16T11:08:36;1.87;;;1.20;;
9948;SDS011;5013;51.840;8.276;2022-10-16T11:13:37;2.93;;;1.20;;
9948;SDS011;5013;51.840;8.276;2022-10-16T11:16:15;2.60;;;1.20;;
9948;SDS011;5013;51.840;8.276;2022-10-16T11:18:52;2.33;;;1.10;;
9948;SDS011;5013;51.840;8.276;2022-10-16T11:21:39;4.37;;;1.17;;
9948;SDS011;5013;51.840;8.276;2022-10-16T11:27:01;4.37;;;1.20;;
9948;SDS011;5013;51.840;8.276;2022-10-16T11:29:33;1.13;;;1.00;;
9948;SDS011;5013;51.840;8.276;2022-10-16T11:32:06;1.73;;;1.10;;
9948;SDS011;5013;51.840;8.276;2022-10-16T11:34:51;2.80;;;1.20;;
9948;SDS011;5013;51.840;8.276;2022-10-16T11:37:24;4.07;;;1.23;;
9948;SDS011;5013;51.840;8.276;2022-10-16T11:39:57;1.27;;;1.17;;
9948;SDS011;5013;51.840;8.276;2022-10-16T11:42:32;1.80;;;1.10;;
9948;SDS011;5013;51.840;8.276;2022-10-16T11:47:53;2.30;;;1.30;;
9948;SDS011;5013;51.840;8.276;2022-10-16T11:50:34;2.97;;;1.10;;
9948;SDS011;5013;51.840;8.276;2022-10-16T11:55:42;2.10;;;1.13;;
9948;SDS011;5013;51.840;8.276;2022-10-16T12:00:51;1.17;;;1.00;;
9948;SDS011;5013;51.840;8.276;2022-10-16T12:08:59;1.37;;;1.17;;
9948;SDS011;5013;51.840;8.276;2022-10-16T12:14:07;2.40;;;0.90;;
9948;SDS011;5013;51.840;8.276;2022-10-16T12:17:00;0.80;;;0.80;;
9948;SDS011;5013;51.840;8.276;2022-10-16T12:23:19;1.60;;;1.07;;
9948;SDS011;5013;51.840;8.276;2022-10-16T12:25:53;1.10;;;1.00;;
9948;SDS011;5013;51.840;8.276;2022-10-16T12:28:21;4.27;;;1.20;;
9948;SDS011;5013;51.840;8.276;2022-10-16T12:30:52;4.00;;;1.10;;
9948;SDS011;5013;51.840;8.276;2022-10-16T12:33:36;3.50;;;1.63;;
9948;SDS011;5013;51.840;8.276;2022-10-16T12:36:13;1.67;;;1.17;;
9948;SDS011;5013;51.840;8.276;2022-10-16T12:38:48;4.33;;;1.73;;
9948;SDS011;5013;51.840;8.276;2022-10-16T12:44:21;2.17;;;1.20;;
9948;SDS011;5013;51.840;8.276;2022-10-16T12:46:49;2.23;;;1.30;;
9948;SDS011;5013;51.840;8.276;2022-10-16T12:49:23;2.43;;;1.27;;
9948;SDS011;5013;51.840;8.276;2022-10-16T12:51:56;1.10;;;1.00;;
9948;SDS011;5013;51.840;8.276;2022-10-16T12:54:25;2.67;;;1.20;;
9948;SDS011;5013;51.840;8.276;2022-10-16T13:10:00;4.20;;;1.10;;
9948;SDS011;5013;51.840;8.276;2022-10-16T13:18:18;1.57;;;1.10;;
9948;SDS011;5013;51.840;8.276;2022-10-16T13:29:16;2.10;;;1.10;;
9948;SDS011;5013;51.840;8.276;2022-10-16T13:31:44;4.37;;;1.10;;
9948;SDS011;5013;51.840;8.276;2022-10-16T13:34:14;3.40;;;1.20;;
9948;SDS011;5013;51.840;8.276;2022-10-16T13:36:44;1.10;;;1.10;;
9948;SDS011;5013;51.840;8.276;2022-10-16T13:39:14;2.03;;;1.00;;
9948;SDS011;5013;51.840;8.276;2022-10-16T13:42:00;1.00;;;1.00;;
9948;SDS011;5013;51.840;8.276;2022-10-16T13:44:28;7.77;;;1.30;;
9948;SDS011;5013;51.840;8.276;2022-10-16T13:47:01;1.30;;;1.00;;
9948;SDS011;5013;51.840;8.276;2022-10-16T13:49:27;2.77;;;1.00;;
9948;SDS011;5013;51.840;8.276;2022-10-16T13:51:54;2.00;;;0.90;;
9948;SDS011;5013;51.840;8.276;2022-10-16T13:54:21;1.50;;;0.87;;
9948;SDS011;5013;51.840;8.276;2022-10-16T13:56:47;0.70;;;0.70;;
9948;SDS011;5013;51.840;8.276;2022-10-16T13:59:26;1.60;;;1.13;;
9948;SDS011;5013;51.840;8.276;2022-10-16T14:01:58;0.93;;;0.80;;
9948;SDS011;5013;51.840;8.276;2022-10-16T14:04:30;0.80;;;0.70;;
9948;SDS011;5013;51.840;8.276;2022-10-16T14:06:58;3.07;;;1.03;;
9948;SDS011;5013;51.840;8.276;2022-10-16T14:11:55;1.40;;;0.90;;
9948;SDS011;5013;51.840;8.276;2022-10-16T14:14:24;3.60;;;1.00;;
9948;SDS011;5013;51.840;8.276;2022-10-16T14:16:52;1.70;;;1.13;;
9948;SDS011;5013;51.840;8.276;2022-10-16T14:19:20;1.03;;;1.00;;
9948;SDS011;5013;51.840;8.276;2022-10-16T14:21:48;1.13;;;0.70;;
9948;SDS011;5013;51.840;8.276;2022-10-16T14:24:49;2.20;;;1.03;;
9948;SDS011;5013;51.840;8.276;2022-10-16T14:27:23;2.87;;;1.03;;
9948;SDS011;5013;51.840;8.276;2022-10-16T14:30:08;1.37;;;1.00;;
9948;SDS011;5013;51.840;8.276;2022-10-16T14:32:37;1.77;;;0.97;;
9948;SDS011;5013;51.840;8.276;2022-10-16T14:35:29;1.70;;;1.10;;
9948;SDS011;5013;51.840;8.276;2022-10-16T14:37:55;1.50;;;0.90;;
9948;SDS011;5013;51.840;8.276;2022-10-16T14:40:23;1.10;;;0.93;;
9948;SDS011;5013;51.840;8.276;2022-10-16T14:42:50;2.97;;;1.10;;
9948;SDS011;5013;51.840;8.276;2022-10-16T14:45:24;0.80;;;0.80;;
9948;SDS011;5013;51.840;8.276;2022-10-16T14:48:00;1.60;;;0.93;;
9948;SDS011;5013;51.840;8.276;2022-10-16T14:50:29;1.00;;;0.93;;
9948;SDS011;5013;51.840;8.276;2022-10-16T14:52:55;0.90;;;0.87;;
9948;SDS011;5013;51.840;8.276;2022-10-16T14:55:21;0.87;;;0.87;;
9948;SDS011;5013;51.840;8.276;2022-10-16T14:57:46;2.43;;;0.80;;
9948;SDS011;5013;51.840;8.276;2022-10-16T15:00:20;1.70;;;0.80;;
9948;SDS011;5013;51.840;8.276;2022-10-16T15:02:48;2.83;;;0.90;;
9948;SDS011;5013;51.840;8.276;2022-10-16T15:05:16;1.53;;;1.00;;
9948;SDS011;5013;51.840;8.276;2022-10-16T15:07:44;1.70;;;1.10;;
9948;SDS011;5013;51.840;8.276;2022-10-16T15:10:11;4.23;;;0.90;;
9948;SDS011;5013;51.840;8.276;2022-10-16T15:12:38;2.07;;;1.10;;
9948;SDS011;5013;51.840;8.276;2022-10-16T15:17:51;2.63;;;1.00;;
9948;SDS011;5013;51.840;8.276;2022-10-16T15:20:20;2.47;;;0.93;;
9948;SDS011;5013;51.840;8.276;2022-10-16T15:22:47;2.10;;;1.30;;
9948;SDS011;5013;51.840;8.276;2022-10-16T15:28:06;1.23;;;1.00;;
9948;SDS011;5013;51.840;8.276;2022-10-16T15:30:33;1.60;;;0.90;;
9948;SDS011;5013;51.840;8.276;2022-10-16T15:33:00;1.40;;;0.77;;
9948;SDS011;5013;51.840;8.276;2022-10-16T15:35:26;1.07;;;0.90;;
9948;SDS011;5013;51.840;8.276;2022-10-16T15:37:52;1.20;;;1.10;;
9948;SDS011;5013;51.840;8.276;2022-10-16T15:40:18;5.20;;;1.20;;
9948;SDS011;5013;51.840;8.276;2022-10-16T15:42:44;1.07;;;0.97;;
9948;SDS011;5013;51.840;8.276;2022-10-16T15:45:11;2.47;;;0.80;;
9948;SDS011;5013;51.840;8.276;2022-10-16T15:47:37;2.47;;;1.00;;
9948;SDS011;5013;51.840;8.276;2022-10-16T15:50:03;3.97;;;1.20;;
9948;SDS011;5013;51.840;8.276;2022-10-16T15:52:30;2.70;;;1.10;;
9948;SDS011;5013;51.840;8.276;2022-10-16T15:54:58;1.20;;;1.10;;
9948;SDS011;5013;51.840;8.276;2022-10-16T15:57:23;2.60;;;1.07;;
9948;SDS011;5013;51.840;8.276;2022-10-16T15:59:49;2.43;;;1.10;;
9948;SDS011;5013;51.840;8.276;2022-10-16T16:02:15;1.20;;;1.10;;
9948;SDS011;5013;51.840;8.276;2022-10-16T16:04:41;2.83;;;1.40;;
9948;SDS011;5013;51.840;8.276;2022-10-16T16:07:06;3.57;;;1.13;;
9948;SDS011;5013;51.840;8.276;2022-10-16T16:09:32;1.13;;;1.00;;
9948;SDS011;5013;51.840;8.276;2022-10-16T16:11:58;1.10;;;1.10;;
9948;SDS011;5013;51.840;8.276;2022-10-16T16:14:25;1.50;;;1.00;;
9948;SDS011;5013;51.840;8.276;2022-10-16T16:16:53;4.40;;;1.20;;
9948;SDS011;5013;51.840;8.276;2022-10-16T16:19:22;2.73;;;1.30;;
9948;SDS011;5013;51.840;8.276;2022-10-16T16:21:48;1.33;;;1.00;;
9948;SDS011;5013;51.840;8.276;2022-10-16T16:24:14;2.50;;;1.03;;
9948;SDS011;5013;51.840;8.276;2022-10-16T16:26:40;2.77;;;1.47;;
9948;SDS011;5013;51.840;8.276;2022-10-16T16:29:09;1.33;;;1.10;;
9948;SDS011;5013;51.840;8.276;2022-10-16T16:31:38;2.93;;;1.40;;
9948;SDS011;5013;51.840;8.276;2022-10-16T16:34:04;3.53;;;1.20;;
9948;SDS011;5013;51.840;8.276;2022-10-16T16:36:31;1.90;;;1.30;;
9948;SDS011;5013;51.840;8.276;2022-10-16T16:38:57;2.73;;;1.30;;
9948;SDS011;5013;51.840;8.276;2022-10-16T16:41:24;3.50;;;1.60;;
9948;SDS011;5013;51.840;8.276;2022-10-16T16:43:52;1.83;;;1.37;;
9948;SDS011;5013;51.840;8.276;2022-10-16T16:46:18;2.23;;;1.30;;
9948;SDS011;5013;51.840;8.276;2022-10-16T16:48:44;3.57;;;1.60;;
9948;SDS011;5013;51.840;8.276;2022-10-16T16:54:33;6.37;;;1.40;;
9948;SDS011;5013;51.840;8.276;2022-10-16T16:56:58;6.63;;;1.53;;
9948;SDS011;5013;51.840;8.276;2022-10-16T16:59:24;3.37;;;1.53;;
9948;SDS011;5013;51.840;8.276;2022-10-16T17:01:49;6.63;;;2.00;;
9948;SDS011;5013;51.840;8.276;2022-10-16T17:04:16;3.63;;;1.90;;
9948;SDS011;5013;51.840;8.276;2022-10-16T17:06:42;3.87;;;1.73;;
9948;SDS011;5013;51.840;8.276;2022-10-16T17:09:08;3.43;;;1.60;;
9948;SDS011;5013;51.840;8.276;2022-10-16T17:11:34;1.77;;;1.40;;
9948;SDS011;5013;51.840;8.276;2022-10-16T17:14:00;2.33;;;1.83;;
9948;SDS011;5013;51.840;8.276;2022-10-16T17:16:28;2.40;;;1.63;;
9948;SDS011;5013;51.840;8.276;2022-10-16T17:18:58;2.97;;;1.60;;
9948;SDS011;5013;51.840;8.276;2022-10-16T17:21:25;2.40;;;1.20;;
9948;SDS011;5013;51.840;8.276;2022-10-16T17:23:52;4.57;;;1.80;;
9948;SDS011;5013;51.840;8.276;2022-10-16T17:26:17;4.00;;;1.80;;
9948;SDS011;5013;51.840;8.276;2022-10-16T17:28:43;2.50;;;1.63;;
9948;SDS011;5013;51.840;8.276;2022-10-16T17:33:39;3.63;;;1.90;;
9948;SDS011;5013;51.840;8.276;2022-10-16T17:36:05;3.77;;;1.63;;
9948;SDS011;5013;51.840;8.276;2022-10-16T17:38:32;1.83;;;1.73;;
9948;SDS011;5013;51.840;8.276;2022-10-16T17:40:58;2.97;;;1.80;;
9948;SDS011;5013;51.840;8.276;2022-10-16T17:43:34;3.00;;;2.70;;
9948;SDS011;5013;51.840;8.276;2022-10-16T17:49:22;3.07;;;2.10;;
9948;SDS011;5013;51.840;8.276;2022-10-16T17:55:09;3.30;;;2.70;;
9948;SDS011;5013;51.840;8.276;2022-10-16T17:57:35;4.30;;;2.50;;
9948;SDS011;5013;51.840;8.276;2022-10-16T18:00:03;4.27;;;2.80;;
9948;SDS011;5013;51.840;8.276;2022-10-16T18:02:30;4.10;;;2.40;;
9948;SDS011;5013;51.840;8.276;2022-10-16T18:04:57;3.27;;;2.50;;
9948;SDS011;5013;51.840;8.276;2022-10-16T18:10:47;3.73;;;2.60;;
9948;SDS011;5013;51.840;8.276;2022-10-16T18:13:14;3.90;;;3.10;;
9948;SDS011;5013;51.840;8.276;2022-10-16T18:16:03;6.00;;;2.70;;
9948;SDS011;5013;51.840;8.276;2022-10-16T18:18:38;3.13;;;2.60;;
9948;SDS011;5013;51.840;8.276;2022-10-16T18:21:04;4.17;;;3.07;;
9948;SDS011;5013;51.840;8.276;2022-10-16T18:23:33;5.40;;;2.77;;
9948;SDS011;5013;51.840;8.276;2022-10-16T18:26:00;7.70;;;3.23;;
9948;SDS011;5013;51.840;8.276;2022-10-16T18:28:26;7.10;;;3.50;;
9948;SDS011;5013;51.840;8.276;2022-10-16T18:30:55;10.73;;;4.97;;
9948;SDS011;5013;51.840;8.276;2022-10-16T18:36:44;9.37;;;5.60;;
9948;SDS011;5013;51.840;8.276;2022-10-16T18:39:10;11.93;;;5.20;;
9948;SDS011;5013;51.840;8.276;2022-10-16T18:41:37;11.07;;;5.90;;
9948;SDS011;5013;51.840;8.276;2022-10-16T18:44:05;7.90;;;6.47;;
9948;SDS011;5013;51.840;8.276;2022-10-16T18:46:32;7.93;;;6.90;;
9948;SDS011;5013;51.840;8.276;2022-10-16T18:48:57;15.30;;;8.33;;
9948;SDS011;5013;51.840;8.276;2022-10-16T18:53:58;12.73;;;8.57;;
9948;SDS011;5013;51.840;8.276;2022-10-16T18:59:48;16.80;;;11.20;;